sensor_id;sensor_type;location;lat;lon;timestamp;P1;durP1;ratioP1;P2;durP2;ratioP2
37945;SDS011;23769;52.478;13.448;2022-12-07T00:00:23;14.13;;;8.70;;
37945;SDS011;23769;52.478;13.448;2022-12-07T00:02:50;16.02;;;8.73;;
37945;SDS011;23769;52.478;13.448;2022-12-07T00:05:18;14.77;;;9.13;;
37945;SDS011;23769;52.478;13.448;2022-12-07T00:07:45;14.50;;;8.25;;
37945;SDS011;23769;52.478;13.448;2022-12-07T00:10:12;15.30;;;8.57;;
37945;SDS011;23769;52.478;13.448;2022-12-07T00:12:39;13.45;;;8.27;;
37945;SDS011;23769;52.478;13.448;2022-12-07T00:15:07;15.38;;;8.43;;
37945;SDS011;23769;52.478;13.448;2022-12-07T00:17:36;14.45;;;8.48;;
37945;SDS011;23769;52.478;13.448;2022-12-07T00:20:03;15.48;;;7.95;;
37945;SDS011;23769;52.478;13.448;2022-12-07T00:22:31;16.48;;;8.23;;
37945;SDS011;23769;52.478;13.448;2022-12-07T00:24:58;13.65;;;8.20;;
37945;SDS011;23769;52.478;13.448;2022-12-07T00:27:25;13.50;;;8.60;;
37945;SDS011;23769;52.478;13.448;2022-12-07T00:29:53;14.50;;;8.50;;
37945;SDS011;23769;52.478;13.448;2022-12-07T00:32:20;12.30;;;7.68;;
37945;SDS011;23769;52.478;13.448;2022-12-07T00:34:49;10.63;;;7.20;;
37945;SDS011;23769;52.478;13.448;2022-12-07T00:37:16;12.15;;;7.53;;
37945;SDS011;23769;52.478;13.448;2022-12-07T00:39:43;12.48;;;8.43;;
37945;SDS011;23769;52.478;13.448;2022-12-07T00:42:12;13.68;;;8.52;;
37945;SDS011;23769;52.478;13.448;2022-12-07T00:44:39;11.57;;;7.50;;
37945;SDS011;23769;52.478;13.448;2022-12-07T00:47:06;12.68;;;7.50;;
37945;SDS011;23769;52.478;13.448;2022-12-07T00:49:33;14.32;;;8.20;;
37945;SDS011;23769;52.478;13.448;2022-12-07T00:52:02;13.52;;;8.07;;
37945;SDS011;23769;52.478;13.448;2022-12-07T00:54:29;12.50;;;8.13;;
37945;SDS011;23769;52.478;13.448;2022-12-07T00:56:56;13.18;;;7.55;;
37945;SDS011;23769;52.478;13.448;2022-12-07T00:59:23;10.02;;;6.97;;
37945;SDS011;23769;52.478;13.448;2022-12-07T01:01:51;12.82;;;7.70;;
37945;SDS011;23769;52.478;13.448;2022-12-07T01:04:18;11.88;;;7.28;;
37945;SDS011;23769;52.478;13.448;2022-12-07T01:06:45;13.02;;;7.80;;
37945;SDS011;23769;52.478;13.448;2022-12-07T01:09:13;10.98;;;7.28;;
37945;SDS011;23769;52.478;13.448;2022-12-07T01:11:41;12.25;;;7.43;;
37945;SDS011;23769;52.478;13.448;2022-12-07T01:14:08;11.35;;;7.68;;
37945;SDS011;23769;52.478;13.448;2022-12-07T01:16:35;11.38;;;7.68;;
37945;SDS011;23769;52.478;13.448;2022-12-07T01:19:02;14.80;;;8.43;;
37945;SDS011;23769;52.478;13.448;2022-12-07T01:21:30;11.45;;;6.82;;
37945;SDS011;23769;52.478;13.448;2022-12-07T01:23:59;11.73;;;7.18;;
37945;SDS011;23769;52.478;13.448;2022-12-07T01:26:28;9.75;;;7.03;;
37945;SDS011;23769;52.478;13.448;2022-12-07T01:28:55;12.95;;;7.63;;
37945;SDS011;23769;52.478;13.448;2022-12-07T01:31:24;9.45;;;6.60;;
37945;SDS011;23769;52.478;13.448;2022-12-07T01:33:53;10.95;;;6.50;;
37945;SDS011;23769;52.478;13.448;2022-12-07T01:36:20;8.85;;;6.55;;
37945;SDS011;23769;52.478;13.448;2022-12-07T01:38:49;11.13;;;6.95;;
37945;SDS011;23769;52.478;13.448;2022-12-07T01:41:18;10.57;;;6.18;;
37945;SDS011;23769;52.478;13.448;2022-12-07T01:46:28;8.55;;;5.47;;
37945;SDS011;23769;52.478;13.448;2022-12-07T01:48:55;9.77;;;6.32;;
37945;SDS011;23769;52.478;13.448;2022-12-07T01:51:23;7.70;;;5.22;;
37945;SDS011;23769;52.478;13.448;2022-12-07T01:53:50;7.55;;;5.05;;
37945;SDS011;23769;52.478;13.448;2022-12-07T01:56:19;9.20;;;5.50;;
37945;SDS011;23769;52.478;13.448;2022-12-07T01:58:47;9.88;;;5.65;;
37945;SDS011;23769;52.478;13.448;2022-12-07T02:01:14;8.98;;;5.03;;
37945;SDS011;23769;52.478;13.448;2022-12-07T02:03:43;10.82;;;5.47;;
37945;SDS011;23769;52.478;13.448;2022-12-07T02:06:12;9.85;;;4.85;;
37945;SDS011;23769;52.478;13.448;2022-12-07T02:08:40;15.25;;;5.55;;
37945;SDS011;23769;52.478;13.448;2022-12-07T02:11:08;7.95;;;5.05;;
37945;SDS011;23769;52.478;13.448;2022-12-07T02:13:35;7.45;;;5.07;;
37945;SDS011;23769;52.478;13.448;2022-12-07T02:16:06;8.48;;;4.60;;
37945;SDS011;23769;52.478;13.448;2022-12-07T02:18:38;7.57;;;4.77;;
37945;SDS011;23769;52.478;13.448;2022-12-07T02:21:08;8.02;;;5.07;;
37945;SDS011;23769;52.478;13.448;2022-12-07T02:23:40;8.18;;;5.10;;
37945;SDS011;23769;52.478;13.448;2022-12-07T02:26:13;7.85;;;5.10;;
37945;SDS011;23769;52.478;13.448;2022-12-07T02:28:55;7.13;;;5.13;;
37945;SDS011;23769;52.478;13.448;2022-12-07T02:31:26;7.50;;;4.80;;
37945;SDS011;23769;52.478;13.448;2022-12-07T02:33:56;9.18;;;5.03;;
37945;SDS011;23769;52.478;13.448;2022-12-07T02:36:26;8.90;;;5.25;;
37945;SDS011;23769;52.478;13.448;2022-12-07T02:38:55;7.22;;;4.93;;
37945;SDS011;23769;52.478;13.448;2022-12-07T02:41:25;7.57;;;4.72;;
37945;SDS011;23769;52.478;13.448;2022-12-07T02:43:56;7.25;;;4.57;;
37945;SDS011;23769;52.478;13.448;2022-12-07T02:46:25;7.80;;;5.00;;
37945;SDS011;23769;52.478;13.448;2022-12-07T02:48:53;9.10;;;5.30;;
37945;SDS011;23769;52.478;13.448;2022-12-07T02:51:24;8.38;;;5.60;;
37945;SDS011;23769;52.478;13.448;2022-12-07T02:53:51;7.78;;;5.45;;
37945;SDS011;23769;52.478;13.448;2022-12-07T02:56:21;8.50;;;5.63;;
37945;SDS011;23769;52.478;13.448;2022-12-07T02:58:54;10.15;;;5.65;;
37945;SDS011;23769;52.478;13.448;2022-12-07T03:01:28;8.95;;;5.80;;
37945;SDS011;23769;52.478;13.448;2022-12-07T03:06:25;8.63;;;5.30;;
37945;SDS011;23769;52.478;13.448;2022-12-07T03:08:56;8.85;;;6.00;;
37945;SDS011;23769;52.478;13.448;2022-12-07T03:11:25;9.48;;;5.28;;
37945;SDS011;23769;52.478;13.448;2022-12-07T03:13:56;10.77;;;6.00;;
37945;SDS011;23769;52.478;13.448;2022-12-07T03:16:30;8.18;;;5.25;;
37945;SDS011;23769;52.478;13.448;2022-12-07T03:18:59;8.75;;;5.75;;
37945;SDS011;23769;52.478;13.448;2022-12-07T03:21:27;9.25;;;5.90;;
37945;SDS011;23769;52.478;13.448;2022-12-07T03:23:58;8.75;;;6.18;;
37945;SDS011;23769;52.478;13.448;2022-12-07T03:26:28;8.88;;;5.30;;
37945;SDS011;23769;52.478;13.448;2022-12-07T03:28:58;7.68;;;5.30;;
37945;SDS011;23769;52.478;13.448;2022-12-07T03:31:28;9.15;;;5.38;;
37945;SDS011;23769;52.478;13.448;2022-12-07T03:33:58;7.78;;;4.90;;
37945;SDS011;23769;52.478;13.448;2022-12-07T03:36:28;8.20;;;5.25;;
37945;SDS011;23769;52.478;13.448;2022-12-07T03:38:57;9.50;;;6.00;;
37945;SDS011;23769;52.478;13.448;2022-12-07T03:41:27;7.85;;;5.30;;
37945;SDS011;23769;52.478;13.448;2022-12-07T03:43:55;8.80;;;5.47;;
37945;SDS011;23769;52.478;13.448;2022-12-07T03:46:24;9.65;;;5.72;;
37945;SDS011;23769;52.478;13.448;2022-12-07T03:48:56;9.65;;;5.72;;
37945;SDS011;23769;52.478;13.448;2022-12-07T03:51:27;9.40;;;5.88;;
37945;SDS011;23769;52.478;13.448;2022-12-07T03:53:57;10.57;;;6.05;;
37945;SDS011;23769;52.478;13.448;2022-12-07T03:56:26;10.13;;;6.53;;
37945;SDS011;23769;52.478;13.448;2022-12-07T03:58:54;10.85;;;6.90;;
37945;SDS011;23769;52.478;13.448;2022-12-07T04:01:22;11.77;;;7.05;;
37945;SDS011;23769;52.478;13.448;2022-12-07T04:03:49;11.55;;;7.10;;
37945;SDS011;23769;52.478;13.448;2022-12-07T04:06:16;12.27;;;6.70;;
37945;SDS011;23769;52.478;13.448;2022-12-07T04:08:45;11.27;;;6.32;;
37945;SDS011;23769;52.478;13.448;2022-12-07T04:11:12;12.38;;;7.60;;
37945;SDS011;23769;52.478;13.448;2022-12-07T04:13:39;12.98;;;7.93;;
37945;SDS011;23769;52.478;13.448;2022-12-07T04:16:24;14.02;;;8.10;;
37945;SDS011;23769;52.478;13.448;2022-12-07T04:18:51;13.35;;;7.80;;
37945;SDS011;23769;52.478;13.448;2022-12-07T04:21:18;17.60;;;8.63;;
37945;SDS011;23769;52.478;13.448;2022-12-07T04:23:47;13.93;;;8.48;;
37945;SDS011;23769;52.478;13.448;2022-12-07T04:26:14;14.73;;;8.45;;
37945;SDS011;23769;52.478;13.448;2022-12-07T04:28:41;15.88;;;9.35;;
37945;SDS011;23769;52.478;13.448;2022-12-07T04:31:08;14.43;;;9.20;;
37945;SDS011;23769;52.478;13.448;2022-12-07T04:33:35;14.18;;;8.98;;
37945;SDS011;23769;52.478;13.448;2022-12-07T04:36:03;16.48;;;10.50;;
37945;SDS011;23769;52.478;13.448;2022-12-07T04:38:30;15.65;;;9.57;;
37945;SDS011;23769;52.478;13.448;2022-12-07T04:40:59;16.85;;;10.05;;
37945;SDS011;23769;52.478;13.448;2022-12-07T04:43:30;16.85;;;9.77;;
37945;SDS011;23769;52.478;13.448;2022-12-07T04:45:57;18.05;;;10.02;;
37945;SDS011;23769;52.478;13.448;2022-12-07T04:48:25;17.42;;;10.80;;
37945;SDS011;23769;52.478;13.448;2022-12-07T04:50:52;18.35;;;10.43;;
37945;SDS011;23769;52.478;13.448;2022-12-07T04:53:19;19.38;;;11.63;;
37945;SDS011;23769;52.478;13.448;2022-12-07T04:55:46;19.33;;;11.77;;
37945;SDS011;23769;52.478;13.448;2022-12-07T04:58:15;18.48;;;10.95;;
37945;SDS011;23769;52.478;13.448;2022-12-07T05:00:42;18.00;;;10.73;;
37945;SDS011;23769;52.478;13.448;2022-12-07T05:03:09;20.13;;;11.45;;
37945;SDS011;23769;52.478;13.448;2022-12-07T05:05:39;21.08;;;12.60;;
37945;SDS011;23769;52.478;13.448;2022-12-07T05:08:06;21.67;;;12.80;;
37945;SDS011;23769;52.478;13.448;2022-12-07T05:10:33;23.05;;;12.70;;
37945;SDS011;23769;52.478;13.448;2022-12-07T05:13:00;23.00;;;12.18;;
37945;SDS011;23769;52.478;13.448;2022-12-07T05:15:29;22.17;;;12.80;;
37945;SDS011;23769;52.478;13.448;2022-12-07T05:17:56;20.23;;;12.05;;
37945;SDS011;23769;52.478;13.448;2022-12-07T05:20:23;21.90;;;12.27;;
37945;SDS011;23769;52.478;13.448;2022-12-07T05:22:50;22.42;;;12.93;;
37945;SDS011;23769;52.478;13.448;2022-12-07T05:25:18;22.58;;;13.50;;
37945;SDS011;23769;52.478;13.448;2022-12-07T05:27:45;21.90;;;13.05;;
37945;SDS011;23769;52.478;13.448;2022-12-07T05:30:12;23.58;;;13.88;;
37945;SDS011;23769;52.478;13.448;2022-12-07T05:32:41;24.13;;;13.35;;
37945;SDS011;23769;52.478;13.448;2022-12-07T05:35:08;22.85;;;13.55;;
37945;SDS011;23769;52.478;13.448;2022-12-07T05:37:35;22.63;;;13.63;;
37945;SDS011;23769;52.478;13.448;2022-12-07T05:40:03;21.23;;;12.68;;
37945;SDS011;23769;52.478;13.448;2022-12-07T05:42:30;27.63;;;16.30;;
37945;SDS011;23769;52.478;13.448;2022-12-07T05:44:57;24.65;;;14.25;;
37945;SDS011;23769;52.478;13.448;2022-12-07T05:47:24;24.85;;;13.00;;
37945;SDS011;23769;52.478;13.448;2022-12-07T05:49:53;26.23;;;14.38;;
37945;SDS011;23769;52.478;13.448;2022-12-07T05:52:20;23.88;;;14.15;;
37945;SDS011;23769;52.478;13.448;2022-12-07T05:54:47;25.92;;;14.82;;
37945;SDS011;23769;52.478;13.448;2022-12-07T05:57:14;25.17;;;14.93;;
37945;SDS011;23769;52.478;13.448;2022-12-07T05:59:41;30.23;;;17.92;;
37945;SDS011;23769;52.478;13.448;2022-12-07T06:02:08;29.73;;;15.85;;
37945;SDS011;23769;52.478;13.448;2022-12-07T06:04:36;29.67;;;15.98;;
37945;SDS011;23769;52.478;13.448;2022-12-07T06:07:05;30.90;;;17.42;;
37945;SDS011;23769;52.478;13.448;2022-12-07T06:09:33;28.63;;;14.95;;
37945;SDS011;23769;52.478;13.448;2022-12-07T06:12:00;30.80;;;15.55;;
37945;SDS011;23769;52.478;13.448;2022-12-07T06:14:45;29.35;;;16.70;;
37945;SDS011;23769;52.478;13.448;2022-12-07T06:17:13;30.25;;;15.02;;
37945;SDS011;23769;52.478;13.448;2022-12-07T06:19:40;31.13;;;16.27;;
37945;SDS011;23769;52.478;13.448;2022-12-07T06:22:09;27.50;;;15.45;;
37945;SDS011;23769;52.478;13.448;2022-12-07T06:24:36;29.15;;;15.63;;
37945;SDS011;23769;52.478;13.448;2022-12-07T06:27:04;30.75;;;16.23;;
37945;SDS011;23769;52.478;13.448;2022-12-07T06:29:31;30.25;;;15.75;;
37945;SDS011;23769;52.478;13.448;2022-12-07T06:31:59;28.92;;;16.02;;
37945;SDS011;23769;52.478;13.448;2022-12-07T06:34:26;27.65;;;15.85;;
37945;SDS011;23769;52.478;13.448;2022-12-07T06:36:53;30.80;;;16.63;;
37945;SDS011;23769;52.478;13.448;2022-12-07T06:39:23;29.30;;;16.38;;
37945;SDS011;23769;52.478;13.448;2022-12-07T06:41:50;27.55;;;16.20;;
37945;SDS011;23769;52.478;13.448;2022-12-07T06:44:19;27.27;;;15.52;;
37945;SDS011;23769;52.478;13.448;2022-12-07T06:46:46;25.65;;;15.07;;
37945;SDS011;23769;52.478;13.448;2022-12-07T06:49:14;29.33;;;16.42;;
37945;SDS011;23769;52.478;13.448;2022-12-07T06:51:41;25.83;;;14.43;;
37945;SDS011;23769;52.478;13.448;2022-12-07T06:54:08;27.08;;;15.70;;
37945;SDS011;23769;52.478;13.448;2022-12-07T06:56:37;30.55;;;16.85;;
37945;SDS011;23769;52.478;13.448;2022-12-07T06:59:05;31.05;;;16.77;;
37945;SDS011;23769;52.478;13.448;2022-12-07T07:01:33;28.35;;;16.23;;
37945;SDS011;23769;52.478;13.448;2022-12-07T07:04:00;29.90;;;16.05;;
37945;SDS011;23769;52.478;13.448;2022-12-07T07:06:27;29.13;;;16.92;;
37945;SDS011;23769;52.478;13.448;2022-12-07T07:08:55;34.58;;;17.30;;
37945;SDS011;23769;52.478;13.448;2022-12-07T07:11:22;28.70;;;15.73;;
37945;SDS011;23769;52.478;13.448;2022-12-07T07:13:50;29.63;;;17.23;;
37945;SDS011;23769;52.478;13.448;2022-12-07T07:16:18;26.35;;;16.38;;
37945;SDS011;23769;52.478;13.448;2022-12-07T07:18:46;28.08;;;15.65;;
37945;SDS011;23769;52.478;13.448;2022-12-07T07:21:13;29.85;;;16.52;;
37945;SDS011;23769;52.478;13.448;2022-12-07T07:23:40;31.95;;;16.92;;
37945;SDS011;23769;52.478;13.448;2022-12-07T07:26:07;27.95;;;14.65;;
37945;SDS011;23769;52.478;13.448;2022-12-07T07:28:34;26.60;;;15.38;;
37945;SDS011;23769;52.478;13.448;2022-12-07T07:31:03;25.88;;;14.93;;
37945;SDS011;23769;52.478;13.448;2022-12-07T07:33:30;30.45;;;15.80;;
37945;SDS011;23769;52.478;13.448;2022-12-07T07:35:58;30.85;;;16.02;;
37945;SDS011;23769;52.478;13.448;2022-12-07T07:38:25;24.83;;;14.18;;
37945;SDS011;23769;52.478;13.448;2022-12-07T07:40:52;25.48;;;13.75;;
37945;SDS011;23769;52.478;13.448;2022-12-07T07:43:19;24.48;;;13.75;;
37945;SDS011;23769;52.478;13.448;2022-12-07T07:45:46;22.70;;;12.35;;
37945;SDS011;23769;52.478;13.448;2022-12-07T07:48:15;23.38;;;12.02;;
37945;SDS011;23769;52.478;13.448;2022-12-07T07:50:42;21.15;;;12.20;;
37945;SDS011;23769;52.478;13.448;2022-12-07T07:53:09;24.23;;;13.20;;
37945;SDS011;23769;52.478;13.448;2022-12-07T07:55:36;28.33;;;16.38;;
37945;SDS011;23769;52.478;13.448;2022-12-07T07:58:03;27.08;;;14.13;;
37945;SDS011;23769;52.478;13.448;2022-12-07T08:00:31;20.40;;;12.35;;
37945;SDS011;23769;52.478;13.448;2022-12-07T08:02:58;25.10;;;13.68;;
37945;SDS011;23769;52.478;13.448;2022-12-07T08:05:26;23.67;;;12.95;;
37945;SDS011;23769;52.478;13.448;2022-12-07T08:07:53;19.10;;;12.02;;
37945;SDS011;23769;52.478;13.448;2022-12-07T08:10:21;15.98;;;9.98;;
37945;SDS011;23769;52.478;13.448;2022-12-07T08:12:48;16.95;;;9.23;;
37945;SDS011;23769;52.478;13.448;2022-12-07T08:15:32;16.75;;;7.93;;
37945;SDS011;23769;52.478;13.448;2022-12-07T08:18:00;13.35;;;8.60;;
37945;SDS011;23769;52.478;13.448;2022-12-07T08:20:29;15.43;;;8.40;;
37945;SDS011;23769;52.478;13.448;2022-12-07T08:22:56;12.50;;;6.90;;
37945;SDS011;23769;52.478;13.448;2022-12-07T08:25:24;13.00;;;7.28;;
37945;SDS011;23769;52.478;13.448;2022-12-07T08:27:51;15.48;;;7.63;;
37945;SDS011;23769;52.478;13.448;2022-12-07T08:30:18;13.10;;;7.20;;
37945;SDS011;23769;52.478;13.448;2022-12-07T08:32:46;13.20;;;6.95;;
37945;SDS011;23769;52.478;13.448;2022-12-07T08:35:13;10.35;;;6.72;;
37945;SDS011;23769;52.478;13.448;2022-12-07T08:37:42;13.73;;;6.50;;
37945;SDS011;23769;52.478;13.448;2022-12-07T08:40:10;10.05;;;5.57;;
37945;SDS011;23769;52.478;13.448;2022-12-07T08:42:40;10.52;;;5.85;;
37945;SDS011;23769;52.478;13.448;2022-12-07T08:45:08;9.32;;;5.32;;
37945;SDS011;23769;52.478;13.448;2022-12-07T08:47:37;9.50;;;5.32;;
37945;SDS011;23769;52.478;13.448;2022-12-07T08:50:06;7.60;;;4.22;;
37945;SDS011;23769;52.478;13.448;2022-12-07T08:52:34;7.35;;;3.47;;
37945;SDS011;23769;52.478;13.448;2022-12-07T08:55:03;5.25;;;3.15;;
37945;SDS011;23769;52.478;13.448;2022-12-07T08:57:31;7.20;;;4.03;;
37945;SDS011;23769;52.478;13.448;2022-12-07T08:59:59;4.53;;;2.80;;
37945;SDS011;23769;52.478;13.448;2022-12-07T09:02:27;6.47;;;2.35;;
37945;SDS011;23769;52.478;13.448;2022-12-07T09:04:54;3.95;;;2.40;;
37945;SDS011;23769;52.478;13.448;2022-12-07T09:07:21;4.78;;;2.83;;
37945;SDS011;23769;52.478;13.448;2022-12-07T09:09:48;3.50;;;2.53;;
37945;SDS011;23769;52.478;13.448;2022-12-07T09:12:17;5.05;;;2.80;;
37945;SDS011;23769;52.478;13.448;2022-12-07T09:14:44;4.45;;;2.25;;
37945;SDS011;23769;52.478;13.448;2022-12-07T09:17:12;3.22;;;1.80;;
37945;SDS011;23769;52.478;13.448;2022-12-07T09:19:39;4.07;;;2.28;;
37945;SDS011;23769;52.478;13.448;2022-12-07T09:22:07;3.72;;;1.98;;
37945;SDS011;23769;52.478;13.448;2022-12-07T09:24:34;6.30;;;2.83;;
37945;SDS011;23769;52.478;13.448;2022-12-07T09:27:01;3.95;;;2.88;;
37945;SDS011;23769;52.478;13.448;2022-12-07T09:29:30;4.63;;;2.30;;
37945;SDS011;23769;52.478;13.448;2022-12-07T09:31:57;5.10;;;2.63;;
37945;SDS011;23769;52.478;13.448;2022-12-07T09:34:24;5.25;;;3.15;;
37945;SDS011;23769;52.478;13.448;2022-12-07T09:36:52;4.75;;;2.50;;
37945;SDS011;23769;52.478;13.448;2022-12-07T09:39:20;4.93;;;2.90;;
37945;SDS011;23769;52.478;13.448;2022-12-07T09:41:47;5.72;;;3.33;;
37945;SDS011;23769;52.478;13.448;2022-12-07T09:44:17;5.25;;;3.08;;
37945;SDS011;23769;52.478;13.448;2022-12-07T09:46:46;6.68;;;2.95;;
37945;SDS011;23769;52.478;13.448;2022-12-07T09:49:16;4.13;;;2.70;;
37945;SDS011;23769;52.478;13.448;2022-12-07T09:51:45;5.82;;;3.20;;
37945;SDS011;23769;52.478;13.448;2022-12-07T09:54:12;8.63;;;4.00;;
37945;SDS011;23769;52.478;13.448;2022-12-07T09:56:40;5.22;;;3.15;;
37945;SDS011;23769;52.478;13.448;2022-12-07T09:59:09;7.18;;;3.10;;
37945;SDS011;23769;52.478;13.448;2022-12-07T10:01:39;5.13;;;2.72;;
37945;SDS011;23769;52.478;13.448;2022-12-07T10:04:10;4.78;;;2.25;;
37945;SDS011;23769;52.478;13.448;2022-12-07T10:06:39;5.43;;;2.50;;
37945;SDS011;23769;52.478;13.448;2022-12-07T10:09:09;3.03;;;2.10;;
37945;SDS011;23769;52.478;13.448;2022-12-07T10:14:19;6.43;;;2.65;;
37945;SDS011;23769;52.478;13.448;2022-12-07T10:16:46;4.63;;;2.42;;
37945;SDS011;23769;52.478;13.448;2022-12-07T10:19:24;4.55;;;2.38;;
37945;SDS011;23769;52.478;13.448;2022-12-07T10:22:02;4.13;;;2.80;;
37945;SDS011;23769;52.478;13.448;2022-12-07T10:24:30;4.70;;;2.60;;
37945;SDS011;23769;52.478;13.448;2022-12-07T10:26:57;4.65;;;2.00;;
37945;SDS011;23769;52.478;13.448;2022-12-07T10:29:27;3.75;;;2.38;;
37945;SDS011;23769;52.478;13.448;2022-12-07T10:31:56;5.63;;;3.40;;
37945;SDS011;23769;52.478;13.448;2022-12-07T10:34:26;2.58;;;2.10;;
37945;SDS011;23769;52.478;13.448;2022-12-07T10:36:55;3.58;;;2.58;;
37945;SDS011;23769;52.478;13.448;2022-12-07T10:39:39;6.20;;;3.72;;
37945;SDS011;23769;52.478;13.448;2022-12-07T10:42:08;7.72;;;3.20;;
37945;SDS011;23769;52.478;13.448;2022-12-07T10:44:42;6.97;;;3.38;;
37945;SDS011;23769;52.478;13.448;2022-12-07T10:47:13;6.80;;;4.00;;
37945;SDS011;23769;52.478;13.448;2022-12-07T10:49:48;8.15;;;2.45;;
37945;SDS011;23769;52.478;13.448;2022-12-07T10:52:25;5.60;;;3.08;;
37945;SDS011;23769;52.478;13.448;2022-12-07T10:54:57;5.95;;;2.72;;
37945;SDS011;23769;52.478;13.448;2022-12-07T10:57:32;6.88;;;4.30;;
37945;SDS011;23769;52.478;13.448;2022-12-07T11:02:35;7.10;;;3.67;;
37945;SDS011;23769;52.478;13.448;2022-12-07T11:05:09;6.38;;;3.00;;
37945;SDS011;23769;52.478;13.448;2022-12-07T11:07:44;5.97;;;3.30;;
37945;SDS011;23769;52.478;13.448;2022-12-07T11:10:15;11.32;;;3.40;;
37945;SDS011;23769;52.478;13.448;2022-12-07T11:12:52;4.15;;;2.70;;
37945;SDS011;23769;52.478;13.448;2022-12-07T11:15:24;6.07;;;3.10;;
37945;SDS011;23769;52.478;13.448;2022-12-07T11:17:55;5.72;;;3.22;;
37945;SDS011;23769;52.478;13.448;2022-12-07T11:20:29;5.35;;;3.55;;
37945;SDS011;23769;52.478;13.448;2022-12-07T11:23:02;8.48;;;3.60;;
37945;SDS011;23769;52.478;13.448;2022-12-07T11:25:32;6.65;;;2.90;;
37945;SDS011;23769;52.478;13.448;2022-12-07T11:28:06;7.20;;;3.90;;
37945;SDS011;23769;52.478;13.448;2022-12-07T11:30:37;6.78;;;3.72;;
37945;SDS011;23769;52.478;13.448;2022-12-07T11:33:12;4.65;;;3.00;;
37945;SDS011;23769;52.478;13.448;2022-12-07T11:35:46;4.60;;;2.87;;
37945;SDS011;23769;52.478;13.448;2022-12-07T11:38:18;5.72;;;3.15;;
37945;SDS011;23769;52.478;13.448;2022-12-07T11:40:48;8.13;;;3.88;;
37945;SDS011;23769;52.478;13.448;2022-12-07T11:43:19;6.47;;;4.05;;
37945;SDS011;23769;52.478;13.448;2022-12-07T11:45:50;6.87;;;4.13;;
37945;SDS011;23769;52.478;13.448;2022-12-07T11:48:20;10.43;;;3.53;;
37945;SDS011;23769;52.478;13.448;2022-12-07T11:50:51;11.50;;;3.47;;
37945;SDS011;23769;52.478;13.448;2022-12-07T11:53:20;7.53;;;3.65;;
37945;SDS011;23769;52.478;13.448;2022-12-07T11:55:49;5.43;;;2.75;;
37945;SDS011;23769;52.478;13.448;2022-12-07T11:58:22;7.60;;;2.75;;
37945;SDS011;23769;52.478;13.448;2022-12-07T12:00:50;8.15;;;3.42;;
37945;SDS011;23769;52.478;13.448;2022-12-07T12:03:20;8.73;;;3.75;;
37945;SDS011;23769;52.478;13.448;2022-12-07T12:05:56;7.40;;;3.60;;
37945;SDS011;23769;52.478;13.448;2022-12-07T12:08:24;8.52;;;3.85;;
37945;SDS011;23769;52.478;13.448;2022-12-07T12:10:55;7.63;;;3.03;;
37945;SDS011;23769;52.478;13.448;2022-12-07T12:16:38;6.25;;;2.92;;
37945;SDS011;23769;52.478;13.448;2022-12-07T12:19:16;5.63;;;3.50;;
37945;SDS011;23769;52.478;13.448;2022-12-07T12:21:47;6.70;;;3.10;;
37945;SDS011;23769;52.478;13.448;2022-12-07T12:24:16;6.90;;;3.00;;
37945;SDS011;23769;52.478;13.448;2022-12-07T12:26:48;6.95;;;2.95;;
37945;SDS011;23769;52.478;13.448;2022-12-07T12:29:19;15.27;;;5.25;;
37945;SDS011;23769;52.478;13.448;2022-12-07T12:32:03;5.85;;;2.58;;
37945;SDS011;23769;52.478;13.448;2022-12-07T12:34:32;7.32;;;2.58;;
37945;SDS011;23769;52.478;13.448;2022-12-07T12:37:01;7.75;;;3.25;;
37945;SDS011;23769;52.478;13.448;2022-12-07T12:39:28;8.45;;;3.15;;
37945;SDS011;23769;52.478;13.448;2022-12-07T12:41:56;12.23;;;3.47;;
37945;SDS011;23769;52.478;13.448;2022-12-07T12:50:16;12.95;;;5.80;;
37945;SDS011;23769;52.478;13.448;2022-12-07T12:58:35;8.90;;;2.83;;
37945;SDS011;23769;52.478;13.448;2022-12-07T13:03:52;8.50;;;3.28;;
37945;SDS011;23769;52.478;13.448;2022-12-07T13:06:20;7.03;;;2.90;;
37945;SDS011;23769;52.478;13.448;2022-12-07T13:09:00;7.93;;;3.30;;
37945;SDS011;23769;52.478;13.448;2022-12-07T13:11:29;8.40;;;2.30;;
37945;SDS011;23769;52.478;13.448;2022-12-07T13:16:40;10.75;;;3.90;;
37945;SDS011;23769;52.478;13.448;2022-12-07T13:21:53;8.32;;;2.55;;
37945;SDS011;23769;52.478;13.448;2022-12-07T13:24:21;8.27;;;3.25;;
37945;SDS011;23769;52.478;13.448;2022-12-07T13:26:48;11.25;;;3.75;;
37945;SDS011;23769;52.478;13.448;2022-12-07T13:29:16;11.18;;;2.50;;
37945;SDS011;23769;52.478;13.448;2022-12-07T13:31:47;7.88;;;2.47;;
37945;SDS011;23769;52.478;13.448;2022-12-07T13:34:27;5.03;;;2.28;;
37945;SDS011;23769;52.478;13.448;2022-12-07T13:36:55;6.90;;;3.53;;
37945;SDS011;23769;52.478;13.448;2022-12-07T13:39:23;6.63;;;2.58;;
37945;SDS011;23769;52.478;13.448;2022-12-07T13:41:52;9.13;;;2.55;;
37945;SDS011;23769;52.478;13.448;2022-12-07T13:44:20;9.30;;;2.55;;
37945;SDS011;23769;52.478;13.448;2022-12-07T13:46:51;7.38;;;2.70;;
37945;SDS011;23769;52.478;13.448;2022-12-07T13:49:22;5.38;;;2.00;;
37945;SDS011;23769;52.478;13.448;2022-12-07T13:51:49;16.40;;;12.90;;
37945;SDS011;23769;52.478;13.448;2022-12-07T13:54:17;9.80;;;3.08;;
37945;SDS011;23769;52.478;13.448;2022-12-07T13:56:47;7.43;;;2.25;;
37945;SDS011;23769;52.478;13.448;2022-12-07T13:59:16;10.35;;;2.40;;
37945;SDS011;23769;52.478;13.448;2022-12-07T14:01:44;8.95;;;3.10;;
37945;SDS011;23769;52.478;13.448;2022-12-07T14:04:26;6.97;;;2.83;;
37945;SDS011;23769;52.478;13.448;2022-12-07T14:06:56;4.05;;;2.33;;
37945;SDS011;23769;52.478;13.448;2022-12-07T14:09:23;9.32;;;2.67;;
37945;SDS011;23769;52.478;13.448;2022-12-07T14:11:51;5.78;;;2.50;;
37945;SDS011;23769;52.478;13.448;2022-12-07T14:14:20;9.70;;;3.70;;
37945;SDS011;23769;52.478;13.448;2022-12-07T14:16:57;5.40;;;2.10;;
37945;SDS011;23769;52.478;13.448;2022-12-07T14:19:45;9.35;;;2.35;;
37945;SDS011;23769;52.478;13.448;2022-12-07T14:22:18;7.07;;;2.42;;
37945;SDS011;23769;52.478;13.448;2022-12-07T14:24:46;4.47;;;1.95;;
37945;SDS011;23769;52.478;13.448;2022-12-07T14:27:16;7.03;;;2.67;;
37945;SDS011;23769;52.478;13.448;2022-12-07T14:29:44;8.40;;;2.42;;
37945;SDS011;23769;52.478;13.448;2022-12-07T14:32:17;8.23;;;1.83;;
37945;SDS011;23769;52.478;13.448;2022-12-07T14:34:56;6.07;;;2.10;;
37945;SDS011;23769;52.478;13.448;2022-12-07T14:37:23;11.60;;;3.65;;
37945;SDS011;23769;52.478;13.448;2022-12-07T14:39:51;10.85;;;3.40;;
37945;SDS011;23769;52.478;13.448;2022-12-07T14:42:18;13.90;;;4.20;;
37945;SDS011;23769;52.478;13.448;2022-12-07T14:44:45;10.57;;;3.22;;
37945;SDS011;23769;52.478;13.448;2022-12-07T14:47:12;6.10;;;2.85;;
37945;SDS011;23769;52.478;13.448;2022-12-07T14:49:39;7.75;;;3.05;;
37945;SDS011;23769;52.478;13.448;2022-12-07T14:52:10;9.95;;;2.58;;
37945;SDS011;23769;52.478;13.448;2022-12-07T14:54:40;5.68;;;2.90;;
37945;SDS011;23769;52.478;13.448;2022-12-07T14:57:08;6.80;;;2.40;;
37945;SDS011;23769;52.478;13.448;2022-12-07T14:59:35;12.65;;;3.10;;
37945;SDS011;23769;52.478;13.448;2022-12-07T15:02:03;9.88;;;3.00;;
37945;SDS011;23769;52.478;13.448;2022-12-07T15:04:30;9.27;;;3.05;;
37945;SDS011;23769;52.478;13.448;2022-12-07T15:06:58;9.90;;;3.03;;
37945;SDS011;23769;52.478;13.448;2022-12-07T15:09:26;9.50;;;2.45;;